sensor_id;sensor_type;location;lat;lon;timestamp;temperature;humidity
15452;DHT22;7827;53.594;9.938;2024-02-04T00:01:43;7.40;1.00
15452;DHT22;7827;53.594;9.938;2024-02-04T00:04:13;7.30;99.90
15452;DHT22;7827;53.594;9.938;2024-02-04T00:06:41;7.40;72.40
15452;DHT22;7827;53.594;9.938;2024-02-04T00:09:10;7.30;14.20
15452;DHT22;7827;53.594;9.938;2024-02-04T00:11:38;7.30;52.60
15452;DHT22;7827;53.594;9.938;2024-02-04T00:14:06;7.30;44.80
15452;DHT22;7827;53.594;9.938;2024-02-04T00:16:35;7.40;1.40
15452;DHT22;7827;53.594;9.938;2024-02-04T00:19:03;7.40;1.00
15452;DHT22;7827;53.594;9.938;2024-02-04T00:21:33;7.30;11.20
15452;DHT22;7827;53.594;9.938;2024-02-04T00:24:01;7.30;25.00
15452;DHT22;7827;53.594;9.938;2024-02-04T00:26:30;7.30;18.30
15452;DHT22;7827;53.594;9.938;2024-02-04T00:28:58;7.30;58.80
15452;DHT22;7827;53.594;9.938;2024-02-04T00:31:26;7.30;22.70
15452;DHT22;7827;53.594;9.938;2024-02-04T00:33:54;7.30;63.00
15452;DHT22;7827;53.594;9.938;2024-02-04T00:36:23;7.20;36.10
15452;DHT22;7827;53.594;9.938;2024-02-04T00:38:52;7.20;49.10
15452;DHT22;7827;53.594;9.938;2024-02-04T00:41:20;7.20;38.80
15452;DHT22;7827;53.594;9.938;2024-02-04T00:43:49;7.20;95.50
15452;DHT22;7827;53.594;9.938;2024-02-04T00:46:17;7.20;91.60
15452;DHT22;7827;53.594;9.938;2024-02-04T00:48:46;7.10;99.90
15452;DHT22;7827;53.594;9.938;2024-02-04T00:51:14;7.10;57.60
15452;DHT22;7827;53.594;9.938;2024-02-04T00:53:44;7.10;99.90
15452;DHT22;7827;53.594;9.938;2024-02-04T00:56:13;7.10;99.90
15452;DHT22;7827;53.594;9.938;2024-02-04T00:58:43;7.10;99.90
15452;DHT22;7827;53.594;9.938;2024-02-04T01:01:11;7.10;65.10
15452;DHT22;7827;53.594;9.938;2024-02-04T01:03:40;7.10;41.30
15452;DHT22;7827;53.594;9.938;2024-02-04T01:06:08;7.10;32.90
15452;DHT22;7827;53.594;9.938;2024-02-04T01:08:36;7.20;23.30
15452;DHT22;7827;53.594;9.938;2024-02-04T01:11:05;7.20;1.00
15452;DHT22;7827;53.594;9.938;2024-02-04T01:13:35;7.20;1.00
15452;DHT22;7827;53.594;9.938;2024-02-04T01:16:03;7.20;1.00
15452;DHT22;7827;53.594;9.938;2024-02-04T01:18:32;7.30;1.00
15452;DHT22;7827;53.594;9.938;2024-02-04T01:21:00;7.30;1.00
15452;DHT22;7827;53.594;9.938;2024-02-04T01:23:28;7.30;1.00
15452;DHT22;7827;53.594;9.938;2024-02-04T01:25:56;7.30;1.00
15452;DHT22;7827;53.594;9.938;2024-02-04T01:28:25;7.40;1.00
15452;DHT22;7827;53.594;9.938;2024-02-04T01:30:54;7.40;1.00
15452;DHT22;7827;53.594;9.938;2024-02-04T01:33:24;7.40;1.00
15452;DHT22;7827;53.594;9.938;2024-02-04T01:35:52;7.40;1.00
15452;DHT22;7827;53.594;9.938;2024-02-04T01:38:21;7.50;1.00
15452;DHT22;7827;53.594;9.938;2024-02-04T01:40:49;7.50;1.00
15452;DHT22;7827;53.594;9.938;2024-02-04T01:43:19;7.50;1.00
15452;DHT22;7827;53.594;9.938;2024-02-04T01:45:51;7.50;1.00
15452;DHT22;7827;53.594;9.938;2024-02-04T01:48:21;7.50;1.00
15452;DHT22;7827;53.594;9.938;2024-02-04T01:50:54;7.50;1.00
15452;DHT22;7827;53.594;9.938;2024-02-04T01:53:24;7.50;1.00
15452;DHT22;7827;53.594;9.938;2024-02-04T01:55:53;7.50;1.00
15452;DHT22;7827;53.594;9.938;2024-02-04T01:58:22;7.60;1.00
15452;DHT22;7827;53.594;9.938;2024-02-04T02:00:51;7.60;1.00
15452;DHT22;7827;53.594;9.938;2024-02-04T02:03:21;7.60;1.00
15452;DHT22;7827;53.594;9.938;2024-02-04T02:05:50;7.50;1.00
15452;DHT22;7827;53.594;9.938;2024-02-04T02:08:19;7.60;1.00
15452;DHT22;7827;53.594;9.938;2024-02-04T02:10:48;7.60;1.00
15452;DHT22;7827;53.594;9.938;2024-02-04T02:13:22;7.60;1.00
15452;DHT22;7827;53.594;9.938;2024-02-04T02:15:54;7.60;1.00
15452;DHT22;7827;53.594;9.938;2024-02-04T02:18:29;7.70;1.00
15452;DHT22;7827;53.594;9.938;2024-02-04T02:21:16;7.70;1.00
15452;DHT22;7827;53.594;9.938;2024-02-04T02:24:03;7.80;1.00
15452;DHT22;7827;53.594;9.938;2024-02-04T02:26:33;7.80;1.00
15452;DHT22;7827;53.594;9.938;2024-02-04T02:29:05;7.70;1.00
15452;DHT22;7827;53.594;9.938;2024-02-04T02:31:35;7.80;1.00
15452;DHT22;7827;53.594;9.938;2024-02-04T02:34:15;7.80;1.00
15452;DHT22;7827;53.594;9.938;2024-02-04T02:37:09;7.80;1.00
15452;DHT22;7827;53.594;9.938;2024-02-04T02:39:45;7.80;1.00
15452;DHT22;7827;53.594;9.938;2024-02-04T02:42:16;7.70;1.00
15452;DHT22;7827;53.594;9.938;2024-02-04T02:44:46;7.70;1.00
15452;DHT22;7827;53.594;9.938;2024-02-04T02:47:15;7.70;1.00
15452;DHT22;7827;53.594;9.938;2024-02-04T02:49:44;7.70;1.00
15452;DHT22;7827;53.594;9.938;2024-02-04T02:52:13;7.60;1.00
15452;DHT22;7827;53.594;9.938;2024-02-04T02:54:41;7.60;1.00
15452;DHT22;7827;53.594;9.938;2024-02-04T02:57:09;7.60;1.00
15452;DHT22;7827;53.594;9.938;2024-02-04T02:59:38;7.60;1.00
15452;DHT22;7827;53.594;9.938;2024-02-04T03:02:07;7.60;1.00
15452;DHT22;7827;53.594;9.938;2024-02-04T03:04:36;7.50;1.00
15452;DHT22;7827;53.594;9.938;2024-02-04T03:07:05;7.50;1.00
15452;DHT22;7827;53.594;9.938;2024-02-04T03:09:34;7.50;1.00
15452;DHT22;7827;53.594;9.938;2024-02-04T03:12:03;7.50;1.00
15452;DHT22;7827;53.594;9.938;2024-02-04T03:14:31;7.50;1.00
15452;DHT22;7827;53.594;9.938;2024-02-04T03:17:00;7.50;1.00
15452;DHT22;7827;53.594;9.938;2024-02-04T03:19:29;7.40;1.00
15452;DHT22;7827;53.594;9.938;2024-02-04T03:21:57;7.40;1.00
15452;DHT22;7827;53.594;9.938;2024-02-04T03:24:26;7.40;1.00
15452;DHT22;7827;53.594;9.938;2024-02-04T03:26:54;7.40;1.00
15452;DHT22;7827;53.594;9.938;2024-02-04T03:29:23;7.50;1.00
15452;DHT22;7827;53.594;9.938;2024-02-04T03:31:55;7.40;1.00
15452;DHT22;7827;53.594;9.938;2024-02-04T03:34:24;7.40;1.00
15452;DHT22;7827;53.594;9.938;2024-02-04T03:36:53;7.40;1.00
15452;DHT22;7827;53.594;9.938;2024-02-04T03:39:24;7.30;1.00
15452;DHT22;7827;53.594;9.938;2024-02-04T03:41:53;7.30;1.80
15452;DHT22;7827;53.594;9.938;2024-02-04T03:44:21;7.30;1.00
15452;DHT22;7827;53.594;9.938;2024-02-04T03:46:50;7.30;7.10
15452;DHT22;7827;53.594;9.938;2024-02-04T03:49:18;7.30;1.00
15452;DHT22;7827;53.594;9.938;2024-02-04T03:51:48;7.30;27.10
15452;DHT22;7827;53.594;9.938;2024-02-04T03:54:16;7.20;1.00
15452;DHT22;7827;53.594;9.938;2024-02-04T03:56:46;7.30;25.30
15452;DHT22;7827;53.594;9.938;2024-02-04T03:59:14;7.30;2.00
15452;DHT22;7827;53.594;9.938;2024-02-04T04:01:47;7.20;13.40
15452;DHT22;7827;53.594;9.938;2024-02-04T04:04:15;7.20;99.90
15452;DHT22;7827;53.594;9.938;2024-02-04T04:06:45;7.20;99.70
15452;DHT22;7827;53.594;9.938;2024-02-04T04:09:15;7.20;99.90
15452;DHT22;7827;53.594;9.938;2024-02-04T04:11:43;7.20;99.90
15452;DHT22;7827;53.594;9.938;2024-02-04T04:14:11;7.10;99.90
15452;DHT22;7827;53.594;9.938;2024-02-04T04:16:39;7.10;99.90
15452;DHT22;7827;53.594;9.938;2024-02-04T04:19:07;7.10;99.90
15452;DHT22;7827;53.594;9.938;2024-02-04T04:21:37;7.00;99.90
15452;DHT22;7827;53.594;9.938;2024-02-04T04:24:07;7.00;99.90
15452;DHT22;7827;53.594;9.938;2024-02-04T04:26:36;7.10;99.90
15452;DHT22;7827;53.594;9.938;2024-02-04T04:29:04;7.10;99.90
15452;DHT22;7827;53.594;9.938;2024-02-04T04:31:33;7.00;99.90
15452;DHT22;7827;53.594;9.938;2024-02-04T04:34:01;7.00;1.00
15452;DHT22;7827;53.594;9.938;2024-02-04T04:36:29;7.00;99.90
15452;DHT22;7827;53.594;9.938;2024-02-04T04:38:57;6.90;99.90
15452;DHT22;7827;53.594;9.938;2024-02-04T04:41:25;6.90;99.90
15452;DHT22;7827;53.594;9.938;2024-02-04T04:43:55;6.90;1.00
15452;DHT22;7827;53.594;9.938;2024-02-04T04:46:23;6.90;99.90
15452;DHT22;7827;53.594;9.938;2024-02-04T04:48:51;6.90;99.90
15452;DHT22;7827;53.594;9.938;2024-02-04T04:51:20;7.00;1.00
15452;DHT22;7827;53.594;9.938;2024-02-04T04:53:48;6.90;99.90
15452;DHT22;7827;53.594;9.938;2024-02-04T04:56:16;6.90;1.00
15452;DHT22;7827;53.594;9.938;2024-02-04T04:58:44;6.90;1.00
15452;DHT22;7827;53.594;9.938;2024-02-04T05:01:14;6.90;1.00
15452;DHT22;7827;53.594;9.938;2024-02-04T05:03:42;6.90;1.00
15452;DHT22;7827;53.594;9.938;2024-02-04T05:06:10;6.80;1.00
15452;DHT22;7827;53.594;9.938;2024-02-04T05:08:38;6.80;1.00
15452;DHT22;7827;53.594;9.938;2024-02-04T05:11:10;6.80;1.00
15452;DHT22;7827;53.594;9.938;2024-02-04T05:13:39;6.90;1.00
15452;DHT22;7827;53.594;9.938;2024-02-04T05:16:07;6.80;1.00
15452;DHT22;7827;53.594;9.938;2024-02-04T05:18:37;6.80;1.00
15452;DHT22;7827;53.594;9.938;2024-02-04T05:21:05;6.80;1.00
15452;DHT22;7827;53.594;9.938;2024-02-04T05:23:33;6.80;1.00
15452;DHT22;7827;53.594;9.938;2024-02-04T05:26:03;6.80;1.00
15452;DHT22;7827;53.594;9.938;2024-02-04T05:28:31;6.80;1.00
15452;DHT22;7827;53.594;9.938;2024-02-04T05:31:01;6.80;1.00
15452;DHT22;7827;53.594;9.938;2024-02-04T05:33:30;6.80;1.00
15452;DHT22;7827;53.594;9.938;2024-02-04T05:35:59;6.70;1.00
15452;DHT22;7827;53.594;9.938;2024-02-04T05:38:27;6.70;1.00
15452;DHT22;7827;53.594;9.938;2024-02-04T05:40:56;6.70;1.00
15452;DHT22;7827;53.594;9.938;2024-02-04T05:43:24;6.70;1.00
15452;DHT22;7827;53.594;9.938;2024-02-04T05:45:52;6.70;1.00
15452;DHT22;7827;53.594;9.938;2024-02-04T05:48:22;6.70;1.00
15452;DHT22;7827;53.594;9.938;2024-02-04T05:50:50;6.70;1.00
15452;DHT22;7827;53.594;9.938;2024-02-04T05:53:20;6.70;1.00
15452;DHT22;7827;53.594;9.938;2024-02-04T05:55:48;6.70;1.00
15452;DHT22;7827;53.594;9.938;2024-02-04T05:58:16;6.80;1.00
15452;DHT22;7827;53.594;9.938;2024-02-04T06:00:44;6.80;1.00
15452;DHT22;7827;53.594;9.938;2024-02-04T06:03:12;6.80;1.00
15452;DHT22;7827;53.594;9.938;2024-02-04T06:05:41;6.80;1.00
15452;DHT22;7827;53.594;9.938;2024-02-04T06:08:09;6.80;1.00
15452;DHT22;7827;53.594;9.938;2024-02-04T06:10:39;6.80;1.00
15452;DHT22;7827;53.594;9.938;2024-02-04T06:13:07;6.80;1.00
15452;DHT22;7827;53.594;9.938;2024-02-04T06:15:35;6.80;1.00
15452;DHT22;7827;53.594;9.938;2024-02-04T06:18:04;6.80;1.00
15452;DHT22;7827;53.594;9.938;2024-02-04T06:20:32;6.80;1.00
15452;DHT22;7827;53.594;9.938;2024-02-04T06:23:00;6.70;1.00
15452;DHT22;7827;53.594;9.938;2024-02-04T06:25:28;6.80;1.00
15452;DHT22;7827;53.594;9.938;2024-02-04T06:27:58;6.80;1.00
15452;DHT22;7827;53.594;9.938;2024-02-04T06:30:26;6.80;99.90
15452;DHT22;7827;53.594;9.938;2024-02-04T06:32:54;6.80;1.00
15452;DHT22;7827;53.594;9.938;2024-02-04T06:35:23;6.70;99.90
15452;DHT22;7827;53.594;9.938;2024-02-04T06:37:52;6.70;1.00
15452;DHT22;7827;53.594;9.938;2024-02-04T06:40:20;6.70;99.90
15452;DHT22;7827;53.594;9.938;2024-02-04T06:42:48;6.80;99.90
15452;DHT22;7827;53.594;9.938;2024-02-04T06:45:18;6.70;99.90
15452;DHT22;7827;53.594;9.938;2024-02-04T06:47:46;6.70;1.00
15452;DHT22;7827;53.594;9.938;2024-02-04T06:50:14;6.70;99.90
15452;DHT22;7827;53.594;9.938;2024-02-04T06:52:43;6.70;99.90
15452;DHT22;7827;53.594;9.938;2024-02-04T06:55:12;6.80;99.90
15452;DHT22;7827;53.594;9.938;2024-02-04T06:57:40;6.80;99.90
15452;DHT22;7827;53.594;9.938;2024-02-04T07:00:10;6.80;99.90
15452;DHT22;7827;53.594;9.938;2024-02-04T07:02:39;6.90;99.90
15452;DHT22;7827;53.594;9.938;2024-02-04T07:05:08;6.90;99.90
15452;DHT22;7827;53.594;9.938;2024-02-04T07:07:37;6.90;99.90
15452;DHT22;7827;53.594;9.938;2024-02-04T07:10:06;6.80;99.90
15452;DHT22;7827;53.594;9.938;2024-02-04T07:12:35;6.80;99.90
15452;DHT22;7827;53.594;9.938;2024-02-04T07:15:03;6.80;99.90
15452;DHT22;7827;53.594;9.938;2024-02-04T07:17:32;6.80;99.90
15452;DHT22;7827;53.594;9.938;2024-02-04T07:20:02;6.80;99.90
15452;DHT22;7827;53.594;9.938;2024-02-04T07:22:30;6.80;99.90
15452;DHT22;7827;53.594;9.938;2024-02-04T07:25:03;6.80;99.90
15452;DHT22;7827;53.594;9.938;2024-02-04T07:27:32;6.80;99.90
15452;DHT22;7827;53.594;9.938;2024-02-04T07:30:00;6.80;99.90
15452;DHT22;7827;53.594;9.938;2024-02-04T07:32:30;6.80;99.90
15452;DHT22;7827;53.594;9.938;2024-02-04T07:34:58;6.80;99.90
15452;DHT22;7827;53.594;9.938;2024-02-04T07:37:28;6.90;99.90
15452;DHT22;7827;53.594;9.938;2024-02-04T07:39:56;6.90;99.90
15452;DHT22;7827;53.594;9.938;2024-02-04T07:42:24;6.90;99.90
15452;DHT22;7827;53.594;9.938;2024-02-04T07:44:53;6.90;99.90
15452;DHT22;7827;53.594;9.938;2024-02-04T07:47:21;6.90;99.90
15452;DHT22;7827;53.594;9.938;2024-02-04T07:49:50;6.90;99.90
15452;DHT22;7827;53.594;9.938;2024-02-04T07:52:18;6.90;99.90
15452;DHT22;7827;53.594;9.938;2024-02-04T07:54:48;6.90;99.90
15452;DHT22;7827;53.594;9.938;2024-02-04T07:57:16;6.90;99.90
15452;DHT22;7827;53.594;9.938;2024-02-04T07:59:44;6.90;99.90
15452;DHT22;7827;53.594;9.938;2024-02-04T08:02:13;6.90;99.90
15452;DHT22;7827;53.594;9.938;2024-02-04T08:04:41;6.90;99.90
15452;DHT22;7827;53.594;9.938;2024-02-04T08:07:09;6.90;99.90
15452;DHT22;7827;53.594;9.938;2024-02-04T08:09:38;6.80;99.90
15452;DHT22;7827;53.594;9.938;2024-02-04T08:12:08;6.90;99.90
15452;DHT22;7827;53.594;9.938;2024-02-04T08:14:36;7.00;99.90
15452;DHT22;7827;53.594;9.938;2024-02-04T08:17:04;7.00;99.90
15452;DHT22;7827;53.594;9.938;2024-02-04T08:19:33;7.10;99.90
15452;DHT22;7827;53.594;9.938;2024-02-04T08:22:02;7.10;99.90
15452;DHT22;7827;53.594;9.938;2024-02-04T08:24:31;7.10;99.90
15452;DHT22;7827;53.594;9.938;2024-02-04T08:27:00;7.10;99.90
15452;DHT22;7827;53.594;9.938;2024-02-04T08:29:29;7.10;99.90
15452;DHT22;7827;53.594;9.938;2024-02-04T08:31:57;7.10;99.90
15452;DHT22;7827;53.594;9.938;2024-02-04T08:34:25;7.10;99.90
15452;DHT22;7827;53.594;9.938;2024-02-04T08:36:54;7.10;99.90
15452;DHT22;7827;53.594;9.938;2024-02-04T08:39:22;7.10;99.90
15452;DHT22;7827;53.594;9.938;2024-02-04T08:41:52;7.10;99.90
15452;DHT22;7827;53.594;9.938;2024-02-04T08:44:20;7.10;99.90
15452;DHT22;7827;53.594;9.938;2024-02-04T08:47:06;7.10;99.90
15452;DHT22;7827;53.594;9.938;2024-02-04T08:49:37;7.20;99.90
15452;DHT22;7827;53.594;9.938;2024-02-04T08:52:06;7.30;99.90
15452;DHT22;7827;53.594;9.938;2024-02-04T08:54:34;7.30;99.90
15452;DHT22;7827;53.594;9.938;2024-02-04T08:57:02;7.30;1.00
15452;DHT22;7827;53.594;9.938;2024-02-04T08:59:31;7.30;46.10
15452;DHT22;7827;53.594;9.938;2024-02-04T09:01:59;7.30;99.10
15452;DHT22;7827;53.594;9.938;2024-02-04T09:04:28;7.40;1.00
15452;DHT22;7827;53.594;9.938;2024-02-04T09:06:57;7.30;1.00
15452;DHT22;7827;53.594;9.938;2024-02-04T09:09:25;7.40;99.90
15452;DHT22;7827;53.594;9.938;2024-02-04T09:11:53;7.50;21.90
15452;DHT22;7827;53.594;9.938;2024-02-04T09:14:21;7.60;99.90
15452;DHT22;7827;53.594;9.938;2024-02-04T09:16:50;7.70;1.00
15452;DHT22;7827;53.594;9.938;2024-02-04T09:19:18;7.60;1.00
15452;DHT22;7827;53.594;9.938;2024-02-04T09:21:48;7.60;1.00
15452;DHT22;7827;53.594;9.938;2024-02-04T09:24:16;7.60;1.00
15452;DHT22;7827;53.594;9.938;2024-02-04T09:26:44;7.50;1.00
15452;DHT22;7827;53.594;9.938;2024-02-04T09:29:12;7.60;81.30
15452;DHT22;7827;53.594;9.938;2024-02-04T09:31:41;7.60;29.70
15452;DHT22;7827;53.594;9.938;2024-02-04T09:34:09;7.70;1.00
15452;DHT22;7827;53.594;9.938;2024-02-04T09:36:38;7.70;1.00
15452;DHT22;7827;53.594;9.938;2024-02-04T09:39:08;7.70;1.00
15452;DHT22;7827;53.594;9.938;2024-02-04T09:41:36;7.70;1.00
15452;DHT22;7827;53.594;9.938;2024-02-04T09:44:05;7.70;1.00
15452;DHT22;7827;53.594;9.938;2024-02-04T09:46:34;7.80;1.00
15452;DHT22;7827;53.594;9.938;2024-02-04T09:49:03;7.90;1.00
15452;DHT22;7827;53.594;9.938;2024-02-04T09:51:32;7.90;1.00
15452;DHT22;7827;53.594;9.938;2024-02-04T09:54:04;7.90;1.00
15452;DHT22;7827;53.594;9.938;2024-02-04T09:56:35;7.90;1.00
15452;DHT22;7827;53.594;9.938;2024-02-04T09:59:05;7.90;1.00
15452;DHT22;7827;53.594;9.938;2024-02-04T10:01:35;7.90;1.00
15452;DHT22;7827;53.594;9.938;2024-02-04T10:04:04;7.80;1.00
15452;DHT22;7827;53.594;9.938;2024-02-04T10:06:32;7.90;1.00
15452;DHT22;7827;53.594;9.938;2024-02-04T10:09:01;8.00;1.00
15452;DHT22;7827;53.594;9.938;2024-02-04T10:11:30;8.00;1.00
15452;DHT22;7827;53.594;9.938;2024-02-04T10:14:00;8.00;1.00
15452;DHT22;7827;53.594;9.938;2024-02-04T10:16:28;8.00;1.00
15452;DHT22;7827;53.594;9.938;2024-02-04T10:18:57;8.00;1.00
15452;DHT22;7827;53.594;9.938;2024-02-04T10:21:25;8.00;1.00
15452;DHT22;7827;53.594;9.938;2024-02-04T10:23:53;8.00;1.00
15452;DHT22;7827;53.594;9.938;2024-02-04T10:26:23;8.00;1.00
15452;DHT22;7827;53.594;9.938;2024-02-04T10:28:59;8.00;1.00
15452;DHT22;7827;53.594;9.938;2024-02-04T10:31:27;8.00;1.00
15452;DHT22;7827;53.594;9.938;2024-02-04T10:33:56;7.90;1.00
15452;DHT22;7827;53.594;9.938;2024-02-04T10:36:24;7.90;1.00
15452;DHT22;7827;53.594;9.938;2024-02-04T10:38:52;7.80;1.00
15452;DHT22;7827;53.594;9.938;2024-02-04T10:41:21;7.90;1.00
15452;DHT22;7827;53.594;9.938;2024-02-04T10:43:50;7.90;1.00
15452;DHT22;7827;53.594;9.938;2024-02-04T10:46:23;7.90;1.00
15452;DHT22;7827;53.594;9.938;2024-02-04T10:48:59;7.90;1.00
15452;DHT22;7827;53.594;9.938;2024-02-04T10:51:31;7.90;1.00
15452;DHT22;7827;53.594;9.938;2024-02-04T10:54:00;7.90;1.00
15452;DHT22;7827;53.594;9.938;2024-02-04T10:56:32;7.90;1.00
15452;DHT22;7827;53.594;9.938;2024-02-04T10:59:03;7.90;1.00
15452;DHT22;7827;53.594;9.938;2024-02-04T11:01:33;8.00;1.00
15452;DHT22;7827;53.594;9.938;2024-02-04T11:04:02;8.00;1.00
15452;DHT22;7827;53.594;9.938;2024-02-04T11:06:32;8.00;1.00
15452;DHT22;7827;53.594;9.938;2024-02-04T11:09:01;8.00;1.00
15452;DHT22;7827;53.594;9.938;2024-02-04T11:11:30;8.10;1.00
15452;DHT22;7827;53.594;9.938;2024-02-04T11:14:00;8.10;1.00
15452;DHT22;7827;53.594;9.938;2024-02-04T11:16:47;8.10;1.00
15452;DHT22;7827;53.594;9.938;2024-02-04T11:19:27;8.10;1.00
15452;DHT22;7827;53.594;9.938;2024-02-04T11:22:24;8.10;1.00
15452;DHT22;7827;53.594;9.938;2024-02-04T11:25:09;8.10;1.00
15452;DHT22;7827;53.594;9.938;2024-02-04T11:27:42;8.20;1.00
15452;DHT22;7827;53.594;9.938;2024-02-04T11:30:11;8.20;1.00
15452;DHT22;7827;53.594;9.938;2024-02-04T11:32:43;8.30;1.00
15452;DHT22;7827;53.594;9.938;2024-02-04T11:35:12;8.20;1.00
15452;DHT22;7827;53.594;9.938;2024-02-04T11:37:41;8.30;1.00
15452;DHT22;7827;53.594;9.938;2024-02-04T11:40:14;8.40;1.00
15452;DHT22;7827;53.594;9.938;2024-02-04T11:42:44;8.40;1.00
15452;DHT22;7827;53.594;9.938;2024-02-04T11:45:13;8.40;1.00
15452;DHT22;7827;53.594;9.938;2024-02-04T11:47:43;8.40;1.00
15452;DHT22;7827;53.594;9.938;2024-02-04T11:50:11;8.40;1.00
15452;DHT22;7827;53.594;9.938;2024-02-04T11:52:40;8.50;1.00
15452;DHT22;7827;53.594;9.938;2024-02-04T11:55:13;8.60;1.00
15452;DHT22;7827;53.594;9.938;2024-02-04T11:57:42;8.60;1.00
15452;DHT22;7827;53.594;9.938;2024-02-04T12:00:12;8.60;1.00
15452;DHT22;7827;53.594;9.938;2024-02-04T12:02:40;8.60;1.00
15452;DHT22;7827;53.594;9.938;2024-02-04T12:05:11;8.60;1.00
15452;DHT22;7827;53.594;9.938;2024-02-04T12:07:40;8.60;1.00
15452;DHT22;7827;53.594;9.938;2024-02-04T12:10:11;8.70;1.00
15452;DHT22;7827;53.594;9.938;2024-02-04T12:12:40;8.70;1.00
15452;DHT22;7827;53.594;9.938;2024-02-04T12:15:09;8.80;1.00
15452;DHT22;7827;53.594;9.938;2024-02-04T12:17:38;8.80;1.00
15452;DHT22;7827;53.594;9.938;2024-02-04T12:20:06;8.80;1.00
15452;DHT22;7827;53.594;9.938;2024-02-04T12:22:36;8.80;1.00
15452;DHT22;7827;53.594;9.938;2024-02-04T12:25:06;8.70;1.00
15452;DHT22;7827;53.594;9.938;2024-02-04T12:27:35;8.70;1.00
15452;DHT22;7827;53.594;9.938;2024-02-04T12:30:05;8.70;1.00
15452;DHT22;7827;53.594;9.938;2024-02-04T12:32:34;8.70;1.00
15452;DHT22;7827;53.594;9.938;2024-02-04T12:35:06;8.70;1.00
15452;DHT22;7827;53.594;9.938;2024-02-04T12:37:37;8.70;1.00
15452;DHT22;7827;53.594;9.938;2024-02-04T12:40:06;8.70;1.00
15452;DHT22;7827;53.594;9.938;2024-02-04T12:42:36;8.70;1.00
15452;DHT22;7827;53.594;9.938;2024-02-04T12:45:05;8.80;1.00
15452;DHT22;7827;53.594;9.938;2024-02-04T12:47:33;8.70;1.00
15452;DHT22;7827;53.594;9.938;2024-02-04T12:50:02;8.70;1.00
15452;DHT22;7827;53.594;9.938;2024-02-04T12:52:30;8.80;1.00
15452;DHT22;7827;53.594;9.938;2024-02-04T12:55:04;8.80;1.00
15452;DHT22;7827;53.594;9.938;2024-02-04T12:57:32;8.80;1.00
15452;DHT22;7827;53.594;9.938;2024-02-04T13:00:04;8.80;1.00
15452;DHT22;7827;53.594;9.938;2024-02-04T13:02:35;8.80;1.00
15452;DHT22;7827;53.594;9.938;2024-02-04T13:05:03;8.90;1.00
15452;DHT22;7827;53.594;9.938;2024-02-04T13:07:32;8.90;1.00
15452;DHT22;7827;53.594;9.938;2024-02-04T13:10:00;8.80;1.00
15452;DHT22;7827;53.594;9.938;2024-02-04T13:12:30;8.90;1.00
15452;DHT22;7827;53.594;9.938;2024-02-04T13:15:01;8.90;1.00
15452;DHT22;7827;53.594;9.938;2024-02-04T13:17:29;8.90;1.00
15452;DHT22;7827;53.594;9.938;2024-02-04T13:19:58;8.90;99.90
15452;DHT22;7827;53.594;9.938;2024-02-04T13:22:27;8.90;1.00
15452;DHT22;7827;53.594;9.938;2024-02-04T13:24:57;8.90;1.00
15452;DHT22;7827;53.594;9.938;2024-02-04T13:27:25;8.90;99.90
15452;DHT22;7827;53.594;9.938;2024-02-04T13:29:55;8.90;1.00
15452;DHT22;7827;53.594;9.938;2024-02-04T13:32:23;8.90;1.00
15452;DHT22;7827;53.594;9.938;2024-02-04T13:34:51;8.90;1.00
15452;DHT22;7827;53.594;9.938;2024-02-04T13:37:36;8.90;1.00
15452;DHT22;7827;53.594;9.938;2024-02-04T13:40:05;8.90;1.00
15452;DHT22;7827;53.594;9.938;2024-02-04T13:42:35;8.90;1.00
15452;DHT22;7827;53.594;9.938;2024-02-04T13:45:06;8.90;1.00
15452;DHT22;7827;53.594;9.938;2024-02-04T13:47:35;8.90;1.00
15452;DHT22;7827;53.594;9.938;2024-02-04T13:50:05;8.80;1.00
15452;DHT22;7827;53.594;9.938;2024-02-04T13:52:35;8.80;1.00
15452;DHT22;7827;53.594;9.938;2024-02-04T13:55:05;8.90;1.00
15452;DHT22;7827;53.594;9.938;2024-02-04T13:57:34;8.80;1.00
15452;DHT22;7827;53.594;9.938;2024-02-04T14:00:05;8.80;1.00
15452;DHT22;7827;53.594;9.938;2024-02-04T14:02:34;8.80;1.00
15452;DHT22;7827;53.594;9.938;2024-02-04T14:05:03;8.80;1.00
15452;DHT22;7827;53.594;9.938;2024-02-04T14:07:32;8.70;1.00
15452;DHT22;7827;53.594;9.938;2024-02-04T14:10:01;8.70;1.00
15452;DHT22;7827;53.594;9.938;2024-02-04T14:12:30;8.70;1.00
15452;DHT22;7827;53.594;9.938;2024-02-04T14:14:58;8.70;1.00
15452;DHT22;7827;53.594;9.938;2024-02-04T14:17:28;8.70;1.00
15452;DHT22;7827;53.594;9.938;2024-02-04T14:19:56;8.70;1.00
15452;DHT22;7827;53.594;9.938;2024-02-04T14:22:25;8.70;1.00
15452;DHT22;7827;53.594;9.938;2024-02-04T14:24:54;8.70;1.00
15452;DHT22;7827;53.594;9.938;2024-02-04T14:27:23;8.70;1.00
15452;DHT22;7827;53.594;9.938;2024-02-04T14:29:51;8.70;1.00
15452;DHT22;7827;53.594;9.938;2024-02-04T14:32:19;8.70;1.00
15452;DHT22;7827;53.594;9.938;2024-02-04T14:34:50;8.70;1.00
15452;DHT22;7827;53.594;9.938;2024-02-04T14:37:21;8.80;1.00
15452;DHT22;7827;53.594;9.938;2024-02-04T14:39:49;8.70;1.00
15452;DHT22;7827;53.594;9.938;2024-02-04T14:42:18;8.70;1.00
15452;DHT22;7827;53.594;9.938;2024-02-04T14:44:46;8.70;1.00
15452;DHT22;7827;53.594;9.938;2024-02-04T14:47:14;8.60;1.00
15452;DHT22;7827;53.594;9.938;2024-02-04T14:49:43;8.70;1.00
15452;DHT22;7827;53.594;9.938;2024-02-04T14:52:12;8.60;1.00
15452;DHT22;7827;53.594;9.938;2024-02-04T14:54:41;8.60;1.00
15452;DHT22;7827;53.594;9.938;2024-02-04T14:57:13;8.60;1.00
15452;DHT22;7827;53.594;9.938;2024-02-04T14:59:41;8.60;1.00
15452;DHT22;7827;53.594;9.938;2024-02-04T15:02:10;8.70;1.00
15452;DHT22;7827;53.594;9.938;2024-02-04T15:04:39;8.60;1.00
15452;DHT22;7827;53.594;9.938;2024-02-04T15:07:07;8.60;1.00
15452;DHT22;7827;53.594;9.938;2024-02-04T15:09:37;8.60;1.00
15452;DHT22;7827;53.594;9.938;2024-02-04T15:12:06;8.60;1.00
15452;DHT22;7827;53.594;9.938;2024-02-04T15:14:37;8.60;1.00
15452;DHT22;7827;53.594;9.938;2024-02-04T15:17:07;8.60;1.00
15452;DHT22;7827;53.594;9.938;2024-02-04T15:19:39;8.50;1.00
15452;DHT22;7827;53.594;9.938;2024-02-04T15:22:08;8.50;1.00
15452;DHT22;7827;53.594;9.938;2024-02-04T15:24:38;8.50;10.60
15452;DHT22;7827;53.594;9.938;2024-02-04T15:27:07;8.50;71.20
15452;DHT22;7827;53.594;9.938;2024-02-04T15:29:37;8.50;99.90
15452;DHT22;7827;53.594;9.938;2024-02-04T15:32:07;8.40;99.90
15452;DHT22;7827;53.594;9.938;2024-02-04T15:34:36;8.40;99.90
15452;DHT22;7827;53.594;9.938;2024-02-04T15:37:04;8.40;99.90
15452;DHT22;7827;53.594;9.938;2024-02-04T15:39:33;8.30;99.90
15452;DHT22;7827;53.594;9.938;2024-02-04T15:42:03;8.40;1.00
15452;DHT22;7827;53.594;9.938;2024-02-04T15:44:32;8.20;1.00
15452;DHT22;7827;53.594;9.938;2024-02-04T15:47:01;8.20;1.00
15452;DHT22;7827;53.594;9.938;2024-02-04T15:49:30;8.20;1.00
15452;DHT22;7827;53.594;9.938;2024-02-04T15:52:00;8.10;1.00
15452;DHT22;7827;53.594;9.938;2024-02-04T15:54:29;8.10;1.00
15452;DHT22;7827;53.594;9.938;2024-02-04T15:57:01;8.00;1.00
15452;DHT22;7827;53.594;9.938;2024-02-04T15:59:40;8.00;1.00
15452;DHT22;7827;53.594;9.938;2024-02-04T16:02:13;8.00;1.00
15452;DHT22;7827;53.594;9.938;2024-02-04T16:04:42;7.90;1.00
15452;DHT22;7827;53.594;9.938;2024-02-04T16:07:13;7.80;1.00
15452;DHT22;7827;53.594;9.938;2024-02-04T16:09:43;7.80;1.00
15452;DHT22;7827;53.594;9.938;2024-02-04T16:12:17;7.80;14.00
15452;DHT22;7827;53.594;9.938;2024-02-04T16:14:49;7.80;48.40
15452;DHT22;7827;53.594;9.938;2024-02-04T16:17:18;7.80;53.70
15452;DHT22;7827;53.594;9.938;2024-02-04T16:19:48;7.80;67.10
15452;DHT22;7827;53.594;9.938;2024-02-04T16:22:19;7.70;85.10
15452;DHT22;7827;53.594;9.938;2024-02-04T16:24:47;7.70;78.90
15452;DHT22;7827;53.594;9.938;2024-02-04T16:27:16;7.70;99.90